sensor_id;sensor_type;location;lat;lon;timestamp;pressure;altitude;pressure_sealevel;temperature
45034;BMP280;30771;47.988;-4.186;2022-11-15T07:01:57;97772.25;;;12.79
45034;BMP280;30771;47.988;-4.186;2022-11-15T07:04:23;97786.25;;;12.79
45034;BMP280;30771;47.988;-4.186;2022-11-15T07:06:48;97768.13;;;12.73
45034;BMP280;30771;47.988;-4.186;2022-11-15T07:09:14;97774.34;;;12.82
45034;BMP280;30771;47.988;-4.186;2022-11-15T07:11:39;97771.47;;;12.78
45034;BMP280;30771;47.988;-4.186;2022-11-15T07:14:04;97777.53;;;12.79
45034;BMP280;30771;47.988;-4.186;2022-11-15T07:16:30;97785.72;;;12.82
45034;BMP280;30771;47.988;-4.186;2022-11-15T07:18:55;97792.50;;;12.88
45034;BMP280;30771;47.988;-4.186;2022-11-15T07:21:20;97800.69;;;12.87
45034;BMP280;30771;47.988;-4.186;2022-11-15T07:23:45;97798.84;;;12.87
45034;BMP280;30771;47.988;-4.186;2022-11-15T07:26:11;97799.66;;;12.88
45034;BMP280;30771;47.988;-4.186;2022-11-15T07:28:36;97804.06;;;12.92
45034;BMP280;30771;47.988;-4.186;2022-11-15T07:31:06;97815.66;;;12.96
45034;BMP280;30771;47.988;-4.186;2022-11-15T07:33:31;97816.72;;;12.95
45034;BMP280;30771;47.988;-4.186;2022-11-15T07:36:00;97816.75;;;12.90
45034;BMP280;30771;47.988;-4.186;2022-11-15T07:38:26;97843.34;;;12.99
45034;BMP280;30771;47.988;-4.186;2022-11-15T07:40:59;97855.50;;;13.00
45034;BMP280;30771;47.988;-4.186;2022-11-15T07:43:24;97850.72;;;13.02
45034;BMP280;30771;47.988;-4.186;2022-11-15T07:45:50;97844.38;;;13.03
45034;BMP280;30771;47.988;-4.186;2022-11-15T07:48:15;97840.41;;;13.00
45034;BMP280;30771;47.988;-4.186;2022-11-15T07:50:41;97837.78;;;13.00
45034;BMP280;30771;47.988;-4.186;2022-11-15T07:53:08;97825.44;;;12.96
45034;BMP280;30771;47.988;-4.186;2022-11-15T07:55:33;97840.97;;;13.02
45034;BMP280;30771;47.988;-4.186;2022-11-15T07:58:07;97853.84;;;13.04
45034;BMP280;30771;47.988;-4.186;2022-11-15T08:00:34;97861.84;;;12.99
45034;BMP280;30771;47.988;-4.186;2022-11-15T08:03:08;97863.19;;;12.96
45034;BMP280;30771;47.988;-4.186;2022-11-15T08:05:35;97874.25;;;12.98
45034;BMP280;30771;47.988;-4.186;2022-11-15T08:08:00;97870.09;;;12.92
45034;BMP280;30771;47.988;-4.186;2022-11-15T08:10:27;97879.06;;;12.91
45034;BMP280;30771;47.988;-4.186;2022-11-15T08:13:09;97878.06;;;12.87
45034;BMP280;30771;47.988;-4.186;2022-11-15T08:15:35;97874.97;;;12.80
45034;BMP280;30771;47.988;-4.186;2022-11-15T08:18:12;97893.91;;;12.87
45034;BMP280;30771;47.988;-4.186;2022-11-15T08:20:37;97875.97;;;12.84
45034;BMP280;30771;47.988;-4.186;2022-11-15T08:23:04;97897.25;;;12.93
45034;BMP280;30771;47.988;-4.186;2022-11-15T08:25:31;97916.00;;;12.96
45034;BMP280;30771;47.988;-4.186;2022-11-15T08:27:59;97922.28;;;13.00
45034;BMP280;30771;47.988;-4.186;2022-11-15T08:30:24;97933.13;;;12.99
45034;BMP280;30771;47.988;-4.186;2022-11-15T08:32:51;97942.38;;;13.01
45034;BMP280;30771;47.988;-4.186;2022-11-15T08:35:18;97960.53;;;13.08
45034;BMP280;30771;47.988;-4.186;2022-11-15T08:37:44;97969.19;;;13.13
45034;BMP280;30771;47.988;-4.186;2022-11-15T08:40:09;97972.88;;;13.12
45034;BMP280;30771;47.988;-4.186;2022-11-15T08:42:35;97993.94;;;13.22
45034;BMP280;30771;47.988;-4.186;2022-11-15T08:45:00;97975.47;;;13.22
45034;BMP280;30771;47.988;-4.186;2022-11-15T08:47:26;98006.25;;;13.32
45034;BMP280;30771;47.988;-4.186;2022-11-15T08:49:51;98013.66;;;13.35
45034;BMP280;30771;47.988;-4.186;2022-11-15T08:52:16;98029.69;;;13.44
45034;BMP280;30771;47.988;-4.186;2022-11-15T08:54:41;98034.59;;;13.55
45034;BMP280;30771;47.988;-4.186;2022-11-15T08:57:07;98045.78;;;13.76
45034;BMP280;30771;47.988;-4.186;2022-11-15T08:59:32;98064.56;;;13.98
45034;BMP280;30771;47.988;-4.186;2022-11-15T09:01:57;98095.38;;;14.12
45034;BMP280;30771;47.988;-4.186;2022-11-15T09:04:23;98122.00;;;14.21
45034;BMP280;30771;47.988;-4.186;2022-11-15T09:06:48;98134.44;;;14.20
45034;BMP280;30771;47.988;-4.186;2022-11-15T09:09:13;98130.44;;;14.23
45034;BMP280;30771;47.988;-4.186;2022-11-15T09:11:38;98124.16;;;14.19
45034;BMP280;30771;47.988;-4.186;2022-11-15T09:14:04;98111.97;;;14.18
45034;BMP280;30771;47.988;-4.186;2022-11-15T09:16:30;98131.16;;;14.28
45034;BMP280;30771;47.988;-4.186;2022-11-15T09:18:56;98123.53;;;14.27
45034;BMP280;30771;47.988;-4.186;2022-11-15T09:21:22;98127.69;;;14.33
45034;BMP280;30771;47.988;-4.186;2022-11-15T09:23:50;98119.31;;;14.26
45034;BMP280;30771;47.988;-4.186;2022-11-15T09:26:15;98125.41;;;14.26
45034;BMP280;30771;47.988;-4.186;2022-11-15T09:28:40;98152.34;;;14.28
45034;BMP280;30771;47.988;-4.186;2022-11-15T09:31:06;98154.31;;;14.18
45034;BMP280;30771;47.988;-4.186;2022-11-15T09:33:31;98189.31;;;14.10
45034;BMP280;30771;47.988;-4.186;2022-11-15T09:36:05;98256.00;;;13.78
45034;BMP280;30771;47.988;-4.186;2022-11-15T09:38:31;98255.19;;;13.39
45034;BMP280;30771;47.988;-4.186;2022-11-15T09:41:48;98243.94;;;13.13
45034;BMP280;30771;47.988;-4.186;2022-11-15T09:47:19;98201.22;;;12.91
45034;BMP280;30771;47.988;-4.186;2022-11-15T09:49:52;98199.94;;;12.84
45034;BMP280;30771;47.988;-4.186;2022-11-15T09:52:19;98196.00;;;12.81
45034;BMP280;30771;47.988;-4.186;2022-11-15T09:54:48;98200.75;;;12.79
45034;BMP280;30771;47.988;-4.186;2022-11-15T10:05:15;98176.00;;;12.70
45034;BMP280;30771;47.988;-4.186;2022-11-15T10:12:57;98164.59;;;12.80
45034;BMP280;30771;47.988;-4.186;2022-11-15T10:15:24;98172.47;;;12.90
45034;BMP280;30771;47.988;-4.186;2022-11-15T10:20:42;98155.44;;;13.11
45034;BMP280;30771;47.988;-4.186;2022-11-15T10:23:13;98162.53;;;13.20
45034;BMP280;30771;47.988;-4.186;2022-11-15T10:25:38;98149.31;;;13.20
45034;BMP280;30771;47.988;-4.186;2022-11-15T10:30:53;98139.72;;;13.35
45034;BMP280;30771;47.988;-4.186;2022-11-15T10:35:43;98101.34;;;13.37
45034;BMP280;30771;47.988;-4.186;2022-11-15T10:38:10;98102.78;;;13.58
45034;BMP280;30771;47.988;-4.186;2022-11-15T10:40:36;98092.06;;;13.73
45034;BMP280;30771;47.988;-4.186;2022-11-15T10:43:13;98083.31;;;13.78
45034;BMP280;30771;47.988;-4.186;2022-11-15T10:45:39;98080.63;;;13.83
45034;BMP280;30771;47.988;-4.186;2022-11-15T10:50:43;98079.63;;;14.02
45034;BMP280;30771;47.988;-4.186;2022-11-15T10:55:46;98055.63;;;14.17
45034;BMP280;30771;47.988;-4.186;2022-11-15T10:58:34;98061.56;;;14.28
45034;BMP280;30771;47.988;-4.186;2022-11-15T11:01:16;98074.63;;;14.43
45034;BMP280;30771;47.988;-4.186;2022-11-15T11:03:43;98101.97;;;14.57
45034;BMP280;30771;47.988;-4.186;2022-11-15T11:08:34;98146.41;;;14.60
45034;BMP280;30771;47.988;-4.186;2022-11-15T11:11:01;98175.09;;;14.53
45034;BMP280;30771;47.988;-4.186;2022-11-15T11:13:38;98187.34;;;14.49
45034;BMP280;30771;47.988;-4.186;2022-11-15T11:16:26;98206.34;;;14.51
45034;BMP280;30771;47.988;-4.186;2022-11-15T11:19:15;98206.41;;;14.46
45034;BMP280;30771;47.988;-4.186;2022-11-15T11:24:21;98225.69;;;14.52
45034;BMP280;30771;47.988;-4.186;2022-11-15T11:40:08;98239.94;;;14.32
45034;BMP280;30771;47.988;-4.186;2022-11-15T11:42:48;98209.00;;;14.51
45034;BMP280;30771;47.988;-4.186;2022-11-15T11:48:14;98278.06;;;14.55
45034;BMP280;30771;47.988;-4.186;2022-11-15T11:50:40;98284.59;;;14.38
45034;BMP280;30771;47.988;-4.186;2022-11-15T11:53:14;98305.53;;;14.35
45034;BMP280;30771;47.988;-4.186;2022-11-15T11:55:53;98318.47;;;14.42
45034;BMP280;30771;47.988;-4.186;2022-11-15T11:58:44;98414.19;;;14.20
45034;BMP280;30771;47.988;-4.186;2022-11-15T12:03:46;98435.63;;;13.55
45034;BMP280;30771;47.988;-4.186;2022-11-15T12:06:23;98442.28;;;13.32
45034;BMP280;30771;47.988;-4.186;2022-11-15T12:14:24;98416.69;;;13.12
45034;BMP280;30771;47.988;-4.186;2022-11-15T12:16:50;98411.72;;;13.01
45034;BMP280;30771;47.988;-4.186;2022-11-15T12:19:16;98414.13;;;13.02
45034;BMP280;30771;47.988;-4.186;2022-11-15T12:21:59;98424.88;;;13.11
45034;BMP280;30771;47.988;-4.186;2022-11-15T12:24:34;98425.19;;;13.14
45034;BMP280;30771;47.988;-4.186;2022-11-15T12:27:11;98417.22;;;13.24
45034;BMP280;30771;47.988;-4.186;2022-11-15T12:29:43;98409.00;;;13.36
45034;BMP280;30771;47.988;-4.186;2022-11-15T12:32:31;98421.13;;;13.42
45034;BMP280;30771;47.988;-4.186;2022-11-15T12:34:58;98430.16;;;13.41
45034;BMP280;30771;47.988;-4.186;2022-11-15T12:40:18;98459.41;;;13.55
45034;BMP280;30771;47.988;-4.186;2022-11-15T12:43:32;98469.47;;;13.58
45034;BMP280;30771;47.988;-4.186;2022-11-15T12:45:50;98486.38;;;13.67
45034;BMP280;30771;47.988;-4.186;2022-11-15T13:14:46;98535.59;;;13.48
45034;BMP280;30771;47.988;-4.186;2022-11-15T13:25:19;98497.00;;;13.37
45034;BMP280;30771;47.988;-4.186;2022-11-15T13:27:47;98491.75;;;13.32
45034;BMP280;30771;47.988;-4.186;2022-11-15T13:30:26;98490.41;;;13.39
45034;BMP280;30771;47.988;-4.186;2022-11-15T13:32:52;98495.44;;;13.36
45034;BMP280;30771;47.988;-4.186;2022-11-15T13:35:21;98507.31;;;13.43
45034;BMP280;30771;47.988;-4.186;2022-11-15T13:37:47;98496.72;;;13.43
45034;BMP280;30771;47.988;-4.186;2022-11-15T13:42:45;98508.38;;;13.47
45034;BMP280;30771;47.988;-4.186;2022-11-15T13:45:14;98498.84;;;13.51
45034;BMP280;30771;47.988;-4.186;2022-11-15T13:47:40;98489.28;;;13.55
45034;BMP280;30771;47.988;-4.186;2022-11-15T13:50:05;98505.19;;;13.60
45034;BMP280;30771;47.988;-4.186;2022-11-15T13:52:36;98512.28;;;13.55
45034;BMP280;30771;47.988;-4.186;2022-11-15T13:55:18;98510.16;;;13.62
45034;BMP280;30771;47.988;-4.186;2022-11-15T13:57:52;98512.28;;;13.65
45034;BMP280;30771;47.988;-4.186;2022-11-15T14:02:56;98517.88;;;13.58
45034;BMP280;30771;47.988;-4.186;2022-11-15T14:05:24;98492.72;;;13.61
45034;BMP280;30771;47.988;-4.186;2022-11-15T14:07:58;98520.47;;;13.68
45034;BMP280;30771;47.988;-4.186;2022-11-15T14:10:35;98530.28;;;13.63
45034;BMP280;30771;47.988;-4.186;2022-11-15T14:13:01;98548.50;;;13.64
45034;BMP280;30771;47.988;-4.186;2022-11-15T14:15:31;98545.88;;;13.64
45034;BMP280;30771;47.988;-4.186;2022-11-15T14:17:57;98539.00;;;13.63
45034;BMP280;30771;47.988;-4.186;2022-11-15T14:20:26;98536.34;;;13.68
45034;BMP280;30771;47.988;-4.186;2022-11-15T14:22:57;98529.22;;;13.64
45034;BMP280;30771;47.988;-4.186;2022-11-15T14:25:34;98521.81;;;13.56
45034;BMP280;30771;47.988;-4.186;2022-11-15T14:30:34;98509.44;;;13.41
45034;BMP280;30771;47.988;-4.186;2022-11-15T14:33:00;98491.44;;;13.43
45034;BMP280;30771;47.988;-4.186;2022-11-15T14:35:25;98495.41;;;13.51
45034;BMP280;30771;47.988;-4.186;2022-11-15T14:37:50;98481.16;;;13.42
45034;BMP280;30771;47.988;-4.186;2022-11-15T14:40:21;98504.38;;;13.50
45034;BMP280;30771;47.988;-4.186;2022-11-15T14:42:48;98512.06;;;13.46
45034;BMP280;30771;47.988;-4.186;2022-11-15T14:45:17;98529.25;;;13.44
45034;BMP280;30771;47.988;-4.186;2022-11-15T14:47:43;98551.97;;;13.40
45034;BMP280;30771;47.988;-4.186;2022-11-15T14:50:13;98588.72;;;13.36
45034;BMP280;30771;47.988;-4.186;2022-11-15T14:52:38;98597.97;;;13.34
45034;BMP280;30771;47.988;-4.186;2022-11-15T14:55:14;98607.22;;;13.31
45034;BMP280;30771;47.988;-4.186;2022-11-15T14:57:41;98597.97;;;13.23
45034;BMP280;30771;47.988;-4.186;2022-11-15T15:00:07;98599.56;;;13.24
45034;BMP280;30771;47.988;-4.186;2022-11-15T15:02:32;98607.50;;;13.24
45034;BMP280;30771;47.988;-4.186;2022-11-15T15:04:57;98600.91;;;13.22
45034;BMP280;30771;47.988;-4.186;2022-11-15T15:07:23;98594.28;;;13.19
45034;BMP280;30771;47.988;-4.186;2022-11-15T15:09:48;98596.38;;;13.22
45034;BMP280;30771;47.988;-4.186;2022-11-15T15:12:19;98595.84;;;13.25
45034;BMP280;30771;47.988;-4.186;2022-11-15T15:14:45;98595.84;;;13.25
45034;BMP280;30771;47.988;-4.186;2022-11-15T15:17:11;98573.66;;;13.21
45034;BMP280;30771;47.988;-4.186;2022-11-15T15:19:37;98560.16;;;13.18
45034;BMP280;30771;47.988;-4.186;2022-11-15T15:22:02;98542.75;;;13.07
45034;BMP280;30771;47.988;-4.186;2022-11-15T15:24:27;98538.50;;;13.11
45034;BMP280;30771;47.988;-4.186;2022-11-15T15:26:53;98525.59;;;13.14
45034;BMP280;30771;47.988;-4.186;2022-11-15T15:29:18;98499.69;;;13.01
45034;BMP280;30771;47.988;-4.186;2022-11-15T15:31:43;98513.94;;;13.15
45034;BMP280;30771;47.988;-4.186;2022-11-15T15:34:09;98501.53;;;13.16
45034;BMP280;30771;47.988;-4.186;2022-11-15T15:36:34;98490.66;;;13.17
45034;BMP280;30771;47.988;-4.186;2022-11-15T15:38:59;98488.81;;;13.13
45034;BMP280;30771;47.988;-4.186;2022-11-15T15:41:24;98495.19;;;13.12
45034;BMP280;30771;47.988;-4.186;2022-11-15T15:43:50;98499.13;;;13.04
45034;BMP280;30771;47.988;-4.186;2022-11-15T15:46:17;98498.06;;;13.00
45034;BMP280;30771;47.988;-4.186;2022-11-15T15:48:42;98506.28;;;12.94
45034;BMP280;30771;47.988;-4.186;2022-11-15T15:51:08;98518.69;;;12.98
45034;BMP280;30771;47.988;-4.186;2022-11-15T15:53:34;98520.81;;;12.96
45034;BMP280;30771;47.988;-4.186;2022-11-15T15:55:59;98513.66;;;12.87
45034;BMP280;30771;47.988;-4.186;2022-11-15T15:58:24;98504.41;;;12.84
45034;BMP280;30771;47.988;-4.186;2022-11-15T16:00:50;98505.22;;;12.85
45034;BMP280;30771;47.988;-4.186;2022-11-15T16:03:16;98495.94;;;12.72
45034;BMP280;30771;47.988;-4.186;2022-11-15T16:05:41;98488.53;;;12.64
45034;BMP280;30771;47.988;-4.186;2022-11-15T16:08:18;98492.78;;;12.60
45034;BMP280;30771;47.988;-4.186;2022-11-15T16:10:43;98488.53;;;12.59
45034;BMP280;30771;47.988;-4.186;2022-11-15T16:13:08;98484.84;;;12.50
45034;BMP280;30771;47.988;-4.186;2022-11-15T16:15:34;98482.19;;;12.50
45034;BMP280;30771;47.988;-4.186;2022-11-15T16:18:00;98489.81;;;12.52
45034;BMP280;30771;47.988;-4.186;2022-11-15T16:22:57;98479.53;;;12.45
45034;BMP280;30771;47.988;-4.186;2022-11-15T16:25:23;98475.84;;;12.46
45034;BMP280;30771;47.988;-4.186;2022-11-15T16:27:48;98480.06;;;12.42
45034;BMP280;30771;47.988;-4.186;2022-11-15T16:30:15;98474.75;;;12.37
45034;BMP280;30771;47.988;-4.186;2022-11-15T16:32:40;98489.25;;;12.30
45034;BMP280;30771;47.988;-4.186;2022-11-15T16:35:10;98507.19;;;12.28
45034;BMP280;30771;47.988;-4.186;2022-11-15T16:37:36;98511.38;;;12.24
45034;BMP280;30771;47.988;-4.186;2022-11-15T16:40:01;98524.31;;;12.20
45034;BMP280;30771;47.988;-4.186;2022-11-15T16:42:27;98535.91;;;12.19
45034;BMP280;30771;47.988;-4.186;2022-11-15T16:44:53;98529.50;;;12.10
45034;BMP280;30771;47.988;-4.186;2022-11-15T16:47:19;98541.66;;;12.11
45034;BMP280;30771;47.988;-4.186;2022-11-15T16:49:45;98551.97;;;12.12
45034;BMP280;30771;47.988;-4.186;2022-11-15T16:52:10;98532.66;;;12.02
45034;BMP280;30771;47.988;-4.186;2022-11-15T16:54:36;98535.59;;;12.10
45034;BMP280;30771;47.988;-4.186;2022-11-15T16:57:01;98527.69;;;12.10
45034;BMP280;30771;47.988;-4.186;2022-11-15T16:59:26;98505.78;;;12.10
45034;BMP280;30771;47.988;-4.186;2022-11-15T17:01:51;98494.22;;;12.16
45034;BMP280;30771;47.988;-4.186;2022-11-15T17:04:18;98488.16;;;12.15
45034;BMP280;30771;47.988;-4.186;2022-11-15T17:06:45;98489.72;;;12.11
45034;BMP280;30771;47.988;-4.186;2022-11-15T17:09:14;98498.97;;;12.19
45034;BMP280;30771;47.988;-4.186;2022-11-15T17:11:40;98505.03;;;12.19
45034;BMP280;30771;47.988;-4.186;2022-11-15T17:14:05;98517.75;;;12.28
45034;BMP280;30771;47.988;-4.186;2022-11-15T17:16:30;98481.00;;;12.06
45034;BMP280;30771;47.988;-4.186;2022-11-15T17:18:55;98437.59;;;11.72
45034;BMP280;30771;47.988;-4.186;2022-11-15T17:21:21;98460.16;;;11.53
45034;BMP280;30771;47.988;-4.186;2022-11-15T17:23:47;98421.22;;;11.23
45034;BMP280;30771;47.988;-4.186;2022-11-15T17:26:14;98403.94;;;11.00
45034;BMP280;30771;47.988;-4.186;2022-11-15T17:28:40;98409.94;;;10.91
45034;BMP280;30771;47.988;-4.186;2022-11-15T17:31:10;98460.69;;;10.81
45034;BMP280;30771;47.988;-4.186;2022-11-15T17:33:36;98430.69;;;10.56
45034;BMP280;30771;47.988;-4.186;2022-11-15T17:36:06;98408.28;;;10.27
45034;BMP280;30771;47.988;-4.186;2022-11-15T17:38:32;98405.34;;;10.18
45034;BMP280;30771;47.988;-4.186;2022-11-15T17:41:11;98383.97;;;10.14
45034;BMP280;30771;47.988;-4.186;2022-11-15T17:43:36;98380.56;;;10.19
45034;BMP280;30771;47.988;-4.186;2022-11-15T17:46:07;98364.53;;;10.15
45034;BMP280;30771;47.988;-4.186;2022-11-15T17:48:33;98361.66;;;10.17
45034;BMP280;30771;47.988;-4.186;2022-11-15T17:51:00;98350.16;;;10.23
45034;BMP280;30771;47.988;-4.186;2022-11-15T17:53:26;98326.16;;;10.19
45034;BMP280;30771;47.988;-4.186;2022-11-15T17:55:52;98335.19;;;10.29
45034;BMP280;30771;47.988;-4.186;2022-11-15T17:58:18;98326.81;;;10.32
45034;BMP280;30771;47.988;-4.186;2022-11-15T18:00:47;98290.81;;;10.32
45034;BMP280;30771;47.988;-4.186;2022-11-15T18:03:13;98279.25;;;10.38
45034;BMP280;30771;47.988;-4.186;2022-11-15T18:05:39;98254.28;;;10.41
45034;BMP280;30771;47.988;-4.186;2022-11-15T18:08:04;98249.63;;;10.48
45034;BMP280;30771;47.988;-4.186;2022-11-15T18:10:30;98259.66;;;10.51
45034;BMP280;30771;47.988;-4.186;2022-11-15T18:12:55;98252.97;;;10.43
45034;BMP280;30771;47.988;-4.186;2022-11-15T18:15:20;98262.53;;;10.49
45034;BMP280;30771;47.988;-4.186;2022-11-15T18:17:46;98246.13;;;10.37
45034;BMP280;30771;47.988;-4.186;2022-11-15T18:20:11;98259.38;;;10.52
45034;BMP280;30771;47.988;-4.186;2022-11-15T18:22:37;98252.81;;;10.50
45034;BMP280;30771;47.988;-4.186;2022-11-15T18:25:02;98267.34;;;10.57
45034;BMP280;30771;47.988;-4.186;2022-11-15T18:27:28;98242.50;;;10.48
45034;BMP280;30771;47.988;-4.186;2022-11-15T18:29:53;98236.47;;;10.53
45034;BMP280;30771;47.988;-4.186;2022-11-15T18:32:18;98238.97;;;10.64
45034;BMP280;30771;47.988;-4.186;2022-11-15T18:34:43;98244.25;;;10.69
45034;BMP280;30771;47.988;-4.186;2022-11-15T18:37:09;98218.41;;;10.61
45034;BMP280;30771;47.988;-4.186;2022-11-15T18:39:34;98219.28;;;10.77
45034;BMP280;30771;47.988;-4.186;2022-11-15T18:41:59;98200.59;;;10.78
45034;BMP280;30771;47.988;-4.186;2022-11-15T18:44:27;98201.41;;;10.79
45034;BMP280;30771;47.988;-4.186;2022-11-15T18:46:52;98206.41;;;10.85
45034;BMP280;30771;47.988;-4.186;2022-11-15T18:49:17;98228.81;;;10.88
45034;BMP280;30771;47.988;-4.186;2022-11-15T18:51:43;98232.72;;;10.80
45034;BMP280;30771;47.988;-4.186;2022-11-15T18:54:11;98258.56;;;10.88
45034;BMP280;30771;47.988;-4.186;2022-11-15T18:56:36;98268.31;;;10.93
45034;BMP280;30771;47.988;-4.186;2022-11-15T18:59:02;98274.94;;;10.95
45034;BMP280;30771;47.988;-4.186;2022-11-15T19:01:30;98280.13;;;10.85
45034;BMP280;30771;47.988;-4.186;2022-11-15T19:03:57;98292.81;;;10.93
45034;BMP280;30771;47.988;-4.186;2022-11-15T19:06:27;98310.19;;;10.99
45034;BMP280;30771;47.988;-4.186;2022-11-15T19:08:54;98311.28;;;10.98
45034;BMP280;30771;47.988;-4.186;2022-11-15T19:11:22;98327.66;;;11.05
45034;BMP280;30771;47.988;-4.186;2022-11-15T19:13:52;98322.66;;;11.04
45034;BMP280;30771;47.988;-4.186;2022-11-15T19:16:17;98300.75;;;10.98
45034;BMP280;30771;47.988;-4.186;2022-11-15T19:18:43;98318.94;;;11.05
45034;BMP280;30771;47.988;-4.186;2022-11-15T19:21:10;98320.78;;;11.04
45034;BMP280;30771;47.988;-4.186;2022-11-15T19:23:37;98314.44;;;11.00
45034;BMP280;30771;47.988;-4.186;2022-11-15T19:26:04;98328.44;;;11.06
45034;BMP280;30771;47.988;-4.186;2022-11-15T19:28:31;98326.59;;;11.06
45034;BMP280;30771;47.988;-4.186;2022-11-15T19:31:10;98327.69;;;11.10
45034;BMP280;30771;47.988;-4.186;2022-11-15T19:33:37;98324.25;;;11.15
45034;BMP280;30771;47.988;-4.186;2022-11-15T19:36:05;98332.72;;;11.22
45034;BMP280;30771;47.988;-4.186;2022-11-15T19:38:31;98335.34;;;11.22
45034;BMP280;30771;47.988;-4.186;2022-11-15T19:41:00;98329.59;;;11.25
45034;BMP280;30771;47.988;-4.186;2022-11-15T19:43:27;98328.25;;;11.23
45034;BMP280;30771;47.988;-4.186;2022-11-15T19:45:53;98311.94;;;11.21
45034;BMP280;30771;47.988;-4.186;2022-11-15T19:48:18;98313.00;;;11.25
45034;BMP280;30771;47.988;-4.186;2022-11-15T19:50:44;98305.59;;;11.22
45034;BMP280;30771;47.988;-4.186;2022-11-15T19:53:09;98310.63;;;11.23
45034;BMP280;30771;47.988;-4.186;2022-11-15T19:55:34;98280.56;;;11.14
45034;BMP280;30771;47.988;-4.186;2022-11-15T19:57:59;98286.09;;;11.23
45034;BMP280;30771;47.988;-4.186;2022-11-15T20:00:25;98284.00;;;11.25
45034;BMP280;30771;47.988;-4.186;2022-11-15T20:02:50;98280.03;;;11.22
45034;BMP280;30771;47.988;-4.186;2022-11-15T20:05:15;98282.97;;;11.21
45034;BMP280;30771;47.988;-4.186;2022-11-15T20:07:41;98267.09;;;11.10
45034;BMP280;30771;47.988;-4.186;2022-11-15T20:10:07;98293.50;;;11.21
45034;BMP280;30771;47.988;-4.186;2022-11-15T20:12:32;98286.91;;;11.18
45034;BMP280;30771;47.988;-4.186;2022-11-15T20:14:57;98294.06;;;11.33
45034;BMP280;30771;47.988;-4.186;2022-11-15T20:17:23;98289.31;;;11.30
45034;BMP280;30771;47.988;-4.186;2022-11-15T20:19:48;98290.13;;;11.35
45034;BMP280;30771;47.988;-4.186;2022-11-15T20:22:13;98276.94;;;11.30
45034;BMP280;30771;47.988;-4.186;2022-11-15T20:24:39;98284.34;;;11.38
45034;BMP280;30771;47.988;-4.186;2022-11-15T20:27:04;98287.25;;;11.42
45034;BMP280;30771;47.988;-4.186;2022-11-15T20:29:29;98269.31;;;11.34
45034;BMP280;30771;47.988;-4.186;2022-11-15T20:31:55;98296.25;;;11.51
45034;BMP280;30771;47.988;-4.186;2022-11-15T20:34:20;98279.63;;;11.40
45034;BMP280;30771;47.988;-4.186;2022-11-15T20:36:45;98288.31;;;11.46
45034;BMP280;30771;47.988;-4.186;2022-11-15T20:39:10;98316.56;;;11.55
45034;BMP280;30771;47.988;-4.186;2022-11-15T20:41:36;98309.94;;;11.48
45034;BMP280;30771;47.988;-4.186;2022-11-15T20:44:01;98320.50;;;11.53
45034;BMP280;30771;47.988;-4.186;2022-11-15T20:46:26;98328.94;;;11.55
45034;BMP280;30771;47.988;-4.186;2022-11-15T20:48:52;98328.13;;;11.54
45034;BMP280;30771;47.988;-4.186;2022-11-15T20:51:18;98308.88;;;11.44
45034;BMP280;30771;47.988;-4.186;2022-11-15T20:53:44;98316.25;;;11.52
45034;BMP280;30771;47.988;-4.186;2022-11-15T20:56:15;98314.69;;;11.46
45034;BMP280;30771;47.988;-4.186;2022-11-15T20:58:41;98346.66;;;11.69
45034;BMP280;30771;47.988;-4.186;2022-11-15T21:01:09;98341.91;;;11.71
45034;BMP280;30771;47.988;-4.186;2022-11-15T21:03:35;98350.88;;;11.75
45034;BMP280;30771;47.988;-4.186;2022-11-15T21:06:00;98338.75;;;11.69
45034;BMP280;30771;47.988;-4.186;2022-11-15T21:08:26;98358.00;;;11.75
45034;BMP280;30771;47.988;-4.186;2022-11-15T21:10:52;98375.91;;;11.73
45034;BMP280;30771;47.988;-4.186;2022-11-15T21:13:18;98347.44;;;11.65
45034;BMP280;30771;47.988;-4.186;2022-11-15T21:15:56;98339.75;;;11.58
45034;BMP280;30771;47.988;-4.186;2022-11-15T21:18:22;98320.72;;;11.46
45034;BMP280;30771;47.988;-4.186;2022-11-15T21:20:48;98287.50;;;11.40
45034;BMP280;30771;47.988;-4.186;2022-11-15T21:23:14;98270.09;;;11.34
45034;BMP280;30771;47.988;-4.186;2022-11-15T21:25:40;98279.66;;;11.50
45034;BMP280;30771;47.988;-4.186;2022-11-15T21:28:05;98254.28;;;11.34
45034;BMP280;30771;47.988;-4.186;2022-11-15T21:30:30;98234.78;;;11.30
45034;BMP280;30771;47.988;-4.186;2022-11-15T21:32:56;98220.81;;;11.30
45034;BMP280;30771;47.988;-4.186;2022-11-15T21:35:21;98194.47;;;11.20
45034;BMP280;30771;47.988;-4.186;2022-11-15T21:37:46;98215.28;;;11.31
45034;BMP280;30771;47.988;-4.186;2022-11-15T21:40:12;98213.97;;;11.34
45034;BMP280;30771;47.988;-4.186;2022-11-15T21:42:37;98262.53;;;11.48
45034;BMP280;30771;47.988;-4.186;2022-11-15T21:45:03;98268.00;;;11.41
45034;BMP280;30771;47.988;-4.186;2022-11-15T21:47:28;98285.13;;;11.39
45034;BMP280;30771;47.988;-4.186;2022-11-15T21:49:53;98318.00;;;11.31
45034;BMP280;30771;47.988;-4.186;2022-11-15T21:52:19;98329.56;;;11.20
45034;BMP280;30771;47.988;-4.186;2022-11-15T21:54:44;98307.88;;;11.03
45034;BMP280;30771;47.988;-4.186;2022-11-15T21:57:09;98305.22;;;10.98
45034;BMP280;30771;47.988;-4.186;2022-11-15T21:59:35;98318.66;;;10.96
45034;BMP280;30771;47.988;-4.186;2022-11-15T22:02:00;98310.69;;;10.86
45034;BMP280;30771;47.988;-4.186;2022-11-15T22:04:25;98311.22;;;10.88
45034;BMP280;30771;47.988;-4.186;2022-11-15T22:06:51;98281.72;;;10.86
45034;BMP280;30771;47.988;-4.186;2022-11-15T22:09:16;98211.13;;;10.78
45034;BMP280;30771;47.988;-4.186;2022-11-15T22:11:41;98197.72;;;10.85
45034;BMP280;30771;47.988;-4.186;2022-11-15T22:14:07;98174.03;;;10.80
45034;BMP280;30771;47.988;-4.186;2022-11-15T22:16:32;98177.22;;;10.82
45034;BMP280;30771;47.988;-4.186;2022-11-15T22:18:58;98166.13;;;10.80
45034;BMP280;30771;47.988;-4.186;2022-11-15T22:21:23;98159.28;;;10.74
45034;BMP280;30771;47.988;-4.186;2022-11-15T22:23:49;98153.97;;;10.69
45034;BMP280;30771;47.988;-4.186;2022-11-15T22:26:16;98155.28;;;10.66
45034;BMP280;30771;47.988;-4.186;2022-11-15T22:28:42;98156.84;;;10.57
45034;BMP280;30771;47.988;-4.186;2022-11-15T22:31:08;98164.19;;;10.60
45034;BMP280;30771;47.988;-4.186;2022-11-15T22:33:33;98167.59;;;10.56
45034;BMP280;30771;47.988;-4.186;2022-11-15T22:35:59;98176.78;;;10.53
45034;BMP280;30771;47.988;-4.186;2022-11-15T22:38:26;98174.13;;;10.48
45034;BMP280;30771;47.988;-4.186;2022-11-15T22:40:51;98167.78;;;10.44
45034;BMP280;30771;47.988;-4.186;2022-11-15T22:43:18;98177.25;;;10.40
45034;BMP280;30771;47.988;-4.186;2022-11-15T22:48:15;98164.59;;;10.37